Flight Track Log - Related Links

Times and Time Zones

All times are in EDT time to prevent confusion due to time zone crossing. See the ELO784 flight status page for this flight to view local times or setup timezone preferences in your user account.

Time Position Orientation Groundspeed Altitude Reporting Facility
EDT Latitude Longitude Course Direction KTS MPH feet Rate Location/Type
Mon 08:46:32 AM 54.3465 22.2518 200° South  Level Estimated
Mon 08:47:32 AM 54.2871 22.2148 200° South  Level Estimated
Mon 08:48:32 AM 54.2276 22.1780 200° South  Level Estimated
Mon 08:49:32 AM 54.1681 22.1413 200° South  Level Estimated
Mon 08:50:32 AM 54.1086 22.1047 200° South  Level Estimated
Mon 08:51:32 AM 54.0491 22.0682 200° South  Level Estimated
Mon 08:52:32 AM 53.9896 22.0317 200° South  Level Estimated
Mon 08:53:32 AM 53.9300 21.9954 200° South  Level Estimated
Mon 08:54:32 AM 53.8705 21.9592 200° South  Level Estimated
Mon 08:55:32 AM 53.8109 21.9231 200° South  Level Estimated
Mon 08:56:32 AM 53.7514 21.8871 200° South  Level Estimated
Mon 08:57:32 AM 53.6918 21.8513 200° South  Level Estimated
Mon 08:58:32 AM 53.6322 21.8155 200° South  Level Estimated
Mon 08:59:32 AM 53.5726 21.7798 200° South  Level Estimated
Mon 09:00:32 AM 53.5130 21.7442 200° South  Level Estimated
Mon 09:01:32 AM 53.4534 21.7087 199° South  Level Estimated
Mon 09:02:32 AM 53.3937 21.6733 199° South  Level Estimated
Mon 09:03:32 AM 53.3341 21.6380 199° South  Level Estimated
Mon 09:04:32 AM 53.2744 21.6028 199° South  Level Estimated
Mon 09:05:32 AM 53.2148 21.5677 199° South  Level Estimated
Mon 09:06:32 AM 53.1551 21.5327 199° South  Level Estimated
Mon 09:07:32 AM 53.0954 21.4978 199° South  Level Estimated
Mon 09:08:32 AM 53.0357 21.4630 199° South  Level Estimated
Mon 09:09:32 AM 52.9760 21.4283 199° South  Level Estimated
Mon 09:10:32 AM 52.9163 21.3937 199° South  Level Estimated
Mon 09:11:32 AM 52.8566 21.3592 199° South  Level Estimated
Mon 09:12:32 AM 52.7968 21.3248 199° South  Level Estimated
Mon 09:13:32 AM 52.7371 21.2904 199° South  Level Estimated
Mon 09:14:32 AM 52.6773 21.2562 199° South  Level Estimated
Mon 09:15:32 AM 52.6176 21.2221 199° South  Level Estimated
Mon 09:16:32 AM 52.5578 21.1880 199° South  Level Estimated
Mon 09:17:32 AM 52.4980 21.1541 199° South  Level Estimated
Mon 09:18:32 AM 52.4382 21.1202 199° South  Level Estimated
Mon 09:19:32 AM 52.3784 21.0864 199° South  Level Estimated
Mon 09:20:32 AM 52.3186 21.0528 199° South  Level Estimated
Mon 09:21:32 AM 52.2588 21.0192 199° South  Level Estimated
Mon 09:22:32 AM 52.1990 20.9857 199° South  Level Estimated
Mon 09:23:32 AM 52.1391 20.9523 19° North  Level Estimated
Mon 09:24:32 AM 52.1990 20.9857 199° South  Level Estimated
Mon 09:25:32 AM 52.1391 20.9523 19° North  Level Estimated
Mon 09:26:32 AM 52.1990 20.9857 199° South  Level Estimated
Mon 09:27:32 AM 52.1391 20.9523 19° North  Level Estimated
Mon 09:28:32 AM 52.1990 20.9857 199° South  Level Estimated
Mon 09:29:32 AM 52.1391 20.9523 19° North  Level Estimated
Mon 09:30:32 AM 52.1990 20.9857 199° South  Level Estimated
Mon 09:31:32 AM 52.1391 20.9523 19° North  Level Estimated
Mon 09:32:32 AM 52.1990 20.9857 199° South  Level Estimated
Mon 09:33:32 AM 52.1391 20.9523 19° North  Level Estimated
Mon 09:34:32 AM 52.1990 20.9857 199° South  Level Estimated
Mon 09:35:32 AM 52.1391 20.9523 19° North  Level Estimated
Mon 09:36:32 AM 52.1990 20.9857 199° South  Level Estimated
Mon 09:37:32 AM 52.1391 20.9523 19° North  Level Estimated
Mon 09:38:32 AM 52.1990 20.9857 19° North  Level Estimated

Login

Don't have an account? Register now (free) for customized features, flight alerts, and more!